Time;durP1;ratioP1;P1;durP2;ratioP2;P2;SDS_P1;SDS_P2;PMS_P1;PMS_P2;Temp;Humidity;BMP_temperature;BMP_pressure;BME280_temperature;BME280_humidity;BME280_pressure;Samples;Min_cycle;Max_cycle;Signal;HPM_P1;HPM_P2
2023/08/04 00:01:35;;;;;;;4.72;2.42;;;;;17.40;97958.00;;;;5090328;28;20054;-61
2023/08/04 00:04:01;;;;;;;3.58;2.58;;;;;17.40;97969.00;;;;5090335;28;20478;-62
2023/08/04 00:06:28;;;;;;;3.15;1.83;;;;;17.50;97965.00;;;;5092526;28;20454;-61
2023/08/04 00:08:55;;;;;;;3.38;2.22;;;;;17.50;97969.00;;;;5094004;28;20040;-61
2023/08/04 00:11:21;;;;;;;4.13;2.40;;;;;17.50;97961.00;;;;5094927;28;20046;-62
2023/08/04 00:13:48;;;;;;;4.05;2.17;;;;;17.40;97972.00;;;;5094034;28;20057;-61
2023/08/04 00:16:15;;;;;;;3.85;2.28;;;;;17.30;97963.00;;;;5093739;28;20052;-61
2023/08/04 00:18:41;;;;;;;3.70;2.15;;;;;17.20;97961.00;;;;5095010;28;20044;-61
2023/08/04 00:21:08;;;;;;;5.45;2.53;;;;;17.20;97960.00;;;;5093897;28;20043;-60
2023/08/04 00:23:34;;;;;;;3.35;2.45;;;;;17.10;97960.00;;;;5093523;28;20139;-61
2023/08/04 00:26:01;;;;;;;4.88;2.50;;;;;17.20;97964.00;;;;5094869;28;20496;-61
2023/08/04 00:28:28;;;;;;;4.00;2.33;;;;;17.30;97966.00;;;;5093612;28;20507;-60
2023/08/04 00:30:54;;;;;;;4.28;2.25;;;;;17.40;97961.00;;;;5094421;28;20050;-60
2023/08/04 00:33:22;;;;;;;3.08;2.10;;;;;17.50;97967.00;;;;5093323;28;20044;-60
2023/08/04 00:35:48;;;;;;;4.68;2.80;;;;;17.60;97959.00;;;;5094529;28;20101;-60
2023/08/04 00:38:15;;;;;;;3.90;2.83;;;;;17.70;97966.00;;;;5093428;28;20178;-61
2023/08/04 00:40:41;;;;;;;3.83;3.15;;;;;17.80;97962.00;;;;5093029;28;20046;-61
2023/08/04 00:43:08;;;;;;;6.15;3.28;;;;;17.80;97962.00;;;;5093096;28;20068;-61
2023/08/04 00:45:35;;;;;;;5.03;3.50;;;;;17.80;97970.00;;;;5094479;28;20044;-60
2023/08/04 00:48:02;;;;;;;3.20;2.90;;;;;17.90;97965.00;;;;5093211;28;20048;-60
2023/08/04 00:50:29;;;;;;;4.00;2.80;;;;;17.80;97961.00;;;;5095897;28;20403;-63
2023/08/04 00:52:56;;;;;;;3.10;2.80;;;;;17.80;97960.00;;;;5093713;28;20044;-61
2023/08/04 00:55:26;;;;;;;3.97;2.90;;;;;17.70;97960.00;;;;5094307;28;20389;-62
2023/08/04 00:57:55;;;;;;;3.40;3.10;;;;;17.50;97958.00;;;;5092976;28;20047;-62
2023/08/04 01:00:23;;;;;;;6.03;3.55;;;;;17.50;97964.00;;;;5094272;28;20126;-60
2023/08/04 01:02:49;;;;;;;4.35;3.30;;;;;17.40;97965.00;;;;5094164;28;20059;-60
2023/08/04 01:05:17;;;;;;;6.50;3.03;;;;;17.50;97962.00;;;;5094083;28;20042;-61
2023/08/04 01:07:52;;;;;;;5.72;2.97;;;;;17.60;97962.00;;;;5094073;28;20052;-61
2023/08/04 01:10:30;;;;;;;4.28;3.20;;;;;17.70;97964.00;;;;5093807;28;20028;-60
2023/08/04 01:13:03;;;;;;;6.40;3.97;;;;;17.80;97959.00;;;;5096013;28;20130;-62
2023/08/04 01:15:31;;;;;;;8.35;3.88;;;;;17.80;97961.00;;;;5096925;28;20577;-62
2023/08/04 01:17:58;;;;;;;4.55;3.50;;;;;17.80;97964.00;;;;5096589;28;20119;-62
2023/08/04 01:20:26;;;;;;;4.35;3.60;;;;;17.90;97958.00;;;;5096328;28;20036;-61
2023/08/04 01:22:53;;;;;;;4.18;3.63;;;;;17.90;97961.00;;;;5096410;28;20040;-61
2023/08/04 01:25:24;;;;;;;4.68;3.60;;;;;17.90;97960.00;;;;5095597;28;20562;-61
2023/08/04 01:27:57;;;;;;;6.80;3.47;;;;;17.90;97959.00;;;;5096441;28;20113;-61
2023/08/04 01:30:25;;;;;;;4.88;3.17;;;;;17.80;97957.00;;;;5096474;28;20074;-61
2023/08/04 01:32:52;;;;;;;5.85;3.25;;;;;17.80;97960.00;;;;5096070;28;20123;-61
2023/08/04 01:35:19;;;;;;;3.45;3.15;;;;;17.90;97966.00;;;;5095698;28;20086;-61
2023/08/04 01:37:46;;;;;;;4.00;2.90;;;;;17.90;97968.00;;;;5095573;28;20047;-61
2023/08/04 01:40:13;;;;;;;4.97;3.50;;;;;17.90;97967.00;;;;5093899;28;20043;-61
2023/08/04 01:42:40;;;;;;;5.63;2.90;;;;;17.80;97964.00;;;;5094138;28;20443;-61
2023/08/04 01:45:08;;;;;;;3.80;2.92;;;;;17.80;97967.00;;;;5094982;28;20047;-62
2023/08/04 01:47:34;;;;;;;5.68;3.05;;;;;17.80;97959.00;;;;5093374;28;20151;-60
2023/08/04 01:50:02;;;;;;;4.72;2.80;;;;;17.80;97960.00;;;;5092837;28;20473;-60
2023/08/04 01:52:29;;;;;;;4.30;3.20;;;;;17.80;97974.00;;;;5093141;28;20119;-61
2023/08/04 01:54:56;;;;;;;10.18;2.80;;;;;17.80;97960.00;;;;5092010;28;20065;-60
2023/08/04 01:57:23;;;;;;;3.45;3.05;;;;;17.80;97967.00;;;;5093061;28;20059;-60
2023/08/04 01:59:49;;;;;;;3.95;2.40;;;;;17.80;97965.00;;;;5091493;28;20492;-60
2023/08/04 02:02:16;;;;;;;3.55;3.08;;;;;17.80;97968.00;;;;5092853;28;20051;-60
2023/08/04 02:04:42;;;;;;;3.42;2.88;;;;;17.70;97962.00;;;;5091713;28;20048;-60
2023/08/04 02:07:10;;;;;;;4.60;3.10;;;;;17.80;97969.00;;;;5093071;28;20052;-60
2023/08/04 02:09:37;;;;;;;3.33;2.80;;;;;17.80;97965.00;;;;5074602;28;20051;-59
2023/08/04 02:12:04;;;;;;;3.83;3.08;;;;;17.80;97974.00;;;;5092542;28;20036;-59
2023/08/04 02:14:31;;;;;;;10.02;3.03;;;;;17.90;97965.00;;;;5092649;28;20389;-60
2023/08/04 02:16:58;;;;;;;2.85;2.53;;;;;17.80;97967.00;;;;5091644;28;20507;-60
2023/08/04 02:19:25;;;;;;;2.85;2.40;;;;;17.80;97966.00;;;;5091382;28;20051;-60
2023/08/04 02:21:51;;;;;;;2.85;2.65;;;;;17.70;97966.00;;;;5091497;28;20097;-60
2023/08/04 02:24:18;;;;;;;6.13;3.25;;;;;17.60;97977.00;;;;5092532;28;20119;-59
2023/08/04 02:26:45;;;;;;;3.35;2.97;;;;;17.70;97974.00;;;;5091274;28;20079;-59
2023/08/04 02:29:12;;;;;;;3.78;2.90;;;;;17.60;97968.00;;;;5090653;28;20180;-60
2023/08/04 02:31:39;;;;;;;3.38;3.05;;;;;17.70;97973.00;;;;5092578;28;20079;-59
2023/08/04 02:34:06;;;;;;;3.45;3.00;;;;;17.70;97973.00;;;;5092612;28;20050;-59
2023/08/04 02:36:33;;;;;;;4.78;3.00;;;;;17.70;97974.00;;;;5092745;28;20051;-59
2023/08/04 02:38:59;;;;;;;4.47;2.70;;;;;17.70;97976.00;;;;5092780;28;20063;-59
2023/08/04 02:41:26;;;;;;;5.03;2.83;;;;;17.70;97979.00;;;;5091389;28;20070;-59
2023/08/04 02:43:52;;;;;;;4.78;3.15;;;;;17.70;97979.00;;;;5092681;28;20050;-59
2023/08/04 02:46:22;;;;;;;3.65;3.10;;;;;17.70;97979.00;;;;5091576;28;20043;-60
2023/08/04 02:48:49;;;;;;;4.07;2.75;;;;;17.60;97979.00;;;;5074735;28;20125;-60
2023/08/04 02:51:16;;;;;;;2.95;2.63;;;;;17.70;97973.00;;;;5092499;28;20467;-60
2023/08/04 02:53:44;;;;;;;3.13;2.83;;;;;17.70;97977.00;;;;5091549;28;20146;-59
2023/08/04 02:56:12;;;;;;;7.50;6.07;;;;;17.70;97974.00;;;;5092391;28;20055;-59
2023/08/04 02:58:41;;;;;;;4.53;4.05;;;;;17.70;97976.00;;;;5091311;28;20047;-60
2023/08/04 03:01:07;;;;;;;5.18;3.33;;;;;17.60;97976.00;;;;5092262;28;20067;-59
2023/08/04 03:03:34;;;;;;;3.55;3.10;;;;;17.60;97980.00;;;;5091314;28;20050;-60
2023/08/04 03:06:01;;;;;;;3.20;2.90;;;;;17.70;97980.00;;;;5092461;28;20040;-60
2023/08/04 03:08:29;;;;;;;3.17;2.88;;;;;17.70;97975.00;;;;5092625;28;20118;-60
2023/08/04 03:10:56;;;;;;;3.53;3.05;;;;;17.70;97972.00;;;;5092024;28;20152;-60
2023/08/04 03:13:22;;;;;;;4.20;3.33;;;;;17.80;97973.00;;;;5092283;28;20075;-60
2023/08/04 03:15:59;;;;;;;5.85;3.00;;;;;17.80;97974.00;;;;5090965;28;20043;-60
2023/08/04 03:18:26;;;;;;;2.92;2.60;;;;;17.70;97976.00;;;;5092135;28;20040;-60
2023/08/04 03:20:54;;;;;;;3.00;2.70;;;;;17.70;97974.00;;;;5073763;28;20097;-60
2023/08/04 03:23:21;;;;;;;6.20;3.65;;;;;17.70;97979.00;;;;5091853;28;20102;-60
2023/08/04 03:25:49;;;;;;;3.70;3.00;;;;;17.70;97986.00;;;;5091949;28;20109;-60
2023/08/04 03:28:16;;;;;;;3.28;2.95;;;;;17.80;97982.00;;;;5090821;28;20047;-60
2023/08/04 03:30:43;;;;;;;5.07;3.28;;;;;17.80;97983.00;;;;5090464;28;20503;-59
2023/08/04 03:33:09;;;;;;;4.50;3.83;;;;;17.80;97986.00;;;;5091929;28;20047;-60
2023/08/04 03:35:36;;;;;;;4.50;3.38;;;;;17.80;97986.00;;;;5091820;28;20131;-60
2023/08/04 03:38:03;;;;;;;3.78;3.28;;;;;17.80;97982.00;;;;5091836;28;20044;-60
2023/08/04 03:40:30;;;;;;;3.40;3.10;;;;;17.70;97991.00;;;;5091690;28;20047;-60
2023/08/04 03:42:59;;;;;;;3.47;3.10;;;;;17.70;97990.00;;;;5094926;28;20072;-60
2023/08/04 03:45:25;;;;;;;3.47;2.92;;;;;17.70;97989.00;;;;5095916;28;20040;-60
2023/08/04 03:47:52;;;;;;;3.83;3.45;;;;;17.60;97993.00;;;;5094574;28;20408;-60
2023/08/04 03:50:19;;;;;;;4.57;3.30;;;;;17.60;97991.00;;;;5094154;28;20069;-60
2023/08/04 03:52:45;;;;;;;4.85;3.20;;;;;17.60;97994.00;;;;5095453;28;20078;-60
2023/08/04 03:55:12;;;;;;;5.07;3.58;;;;;17.60;97991.00;;;;5095468;28;20076;-60
2023/08/04 03:57:39;;;;;;;3.85;3.50;;;;;17.60;98000.00;;;;5095310;28;20055;-59
2023/08/04 04:00:06;;;;;;;4.38;3.90;;;;;17.60;97992.00;;;;5095121;28;20505;-59
2023/08/04 04:02:40;;;;;;;3.85;3.40;;;;;17.60;98010.00;;;;5095454;28;20044;-59
2023/08/04 04:05:07;;;;;;;3.85;3.55;;;;;17.60;98008.00;;;;5093831;28;20051;-60
2023/08/04 04:07:33;;;;;;;3.90;3.50;;;;;17.60;98007.00;;;;5093967;28;20071;-60
2023/08/04 04:10:00;;;;;;;4.35;3.28;;;;;17.70;98004.00;;;;5095223;28;20060;-60
2023/08/04 04:12:26;;;;;;;4.93;3.50;;;;;17.70;98003.00;;;;5094912;28;20047;-60
2023/08/04 04:14:53;;;;;;;4.40;3.70;;;;;17.60;98006.00;;;;5095234;28;20093;-60
2023/08/04 04:17:20;;;;;;;4.53;3.80;;;;;17.60;98001.00;;;;5095287;28;20050;-60
2023/08/04 04:19:46;;;;;;;4.45;3.70;;;;;17.70;98003.00;;;;5094740;28;20044;-60
2023/08/04 04:22:14;;;;;;;3.90;3.60;;;;;17.70;98007.00;;;;5094987;28;20546;-60
2023/08/04 04:24:40;;;;;;;4.28;3.88;;;;;17.70;98003.00;;;;5093799;28;20455;-60
2023/08/04 04:27:07;;;;;;;4.25;3.85;;;;;17.70;98014.00;;;;5093882;28;20089;-60
2023/08/04 04:29:34;;;;;;;3.70;3.40;;;;;17.70;98014.00;;;;5094645;28;20403;-60
2023/08/04 04:32:01;;;;;;;4.25;3.85;;;;;17.70;98014.00;;;;5094801;28;20032;-60
2023/08/04 04:34:28;;;;;;;4.30;3.90;;;;;17.70;98015.00;;;;5094758;28;20048;-60
2023/08/04 04:37:00;;;;;;;4.05;3.65;;;;;17.70;98015.00;;;;5094825;28;20044;-60
2023/08/04 04:39:27;;;;;;;5.35;3.72;;;;;17.60;98025.00;;;;5094692;28;20122;-61
2023/08/04 04:41:53;;;;;;;5.60;3.50;;;;;17.60;98021.00;;;;5094592;28;20063;-60
2023/08/04 04:44:20;;;;;;;4.82;4.15;;;;;17.40;98026.00;;;;5094572;28;20503;-60
2023/08/04 04:46:46;;;;;;;4.32;3.83;;;;;17.30;98015.00;;;;5076402;28;20048;-60
2023/08/04 04:49:16;;;;;;;7.28;4.18;;;;;17.30;98024.00;;;;5094413;28;20048;-60
2023/08/04 04:51:43;;;;;;;4.22;3.67;;;;;17.30;98023.00;;;;5094409;28;20453;-59
2023/08/04 04:54:10;;;;;;;4.53;3.60;;;;;17.30;98021.00;;;;5093037;28;20101;-60
2023/08/04 04:56:37;;;;;;;6.47;3.90;;;;;17.30;98025.00;;;;5093968;28;20506;-59
2023/08/04 04:59:04;;;;;;;6.40;4.18;;;;;17.30;98032.00;;;;5094227;28;20036;-59
2023/08/04 05:01:31;;;;;;;5.38;4.03;;;;;17.30;98029.00;;;;5094167;28;20207;-60
2023/08/04 05:03:58;;;;;;;6.22;4.25;;;;;17.30;98034.00;;;;5094107;28;20122;-60
2023/08/04 05:06:24;;;;;;;11.93;9.27;;;;;17.20;98031.00;;;;5094322;28;20048;-59
2023/08/04 05:08:54;;;;;;;4.22;3.80;;;;;17.20;98033.00;;;;5094025;28;20040;-60
2023/08/04 05:11:20;;;;;;;4.90;4.00;;;;;17.10;98028.00;;;;5093798;28;20111;-60
2023/08/04 05:13:47;;;;;;;5.63;3.80;;;;;17.10;98032.00;;;;5093862;28;20060;-60
2023/08/04 05:16:13;;;;;;;5.45;4.35;;;;;17.10;98034.00;;;;5093969;28;20047;-60
2023/08/04 05:18:40;;;;;;;5.88;3.70;;;;;17.10;98039.00;;;;5093932;28;20496;-60
2023/08/04 05:21:07;;;;;;;4.07;3.58;;;;;17.10;98042.00;;;;5093611;28;20055;-60
2023/08/04 05:23:33;;;;;;;5.82;3.95;;;;;17.00;98045.00;;;;5093816;28;20064;-60
2023/08/04 05:26:00;;;;;;;4.18;3.63;;;;;17.00;98037.00;;;;5093757;28;20123;-61
2023/08/04 05:28:30;;;;;;;6.05;3.67;;;;;17.10;98044.00;;;;5093658;28;20055;-60
2023/08/04 05:31:03;;;;;;;5.25;3.72;;;;;17.20;98043.00;;;;5093558;28;20083;-61
2023/08/04 05:33:31;;;;;;;5.00;4.50;;;;;17.20;98045.00;;;;5092673;28;20082;-60
2023/08/04 05:35:59;;;;;;;4.00;3.70;;;;;17.30;98061.00;;;;5093611;28;20043;-61
2023/08/04 05:38:25;;;;;;;4.53;4.00;;;;;17.30;98056.00;;;;5092284;28;20548;-61
2023/08/04 05:40:52;;;;;;;3.97;3.50;;;;;17.50;98060.00;;;;5092095;28;20067;-61
2023/08/04 05:43:19;;;;;;;5.18;3.95;;;;;17.60;98066.00;;;;5093333;28;20044;-61
2023/08/04 05:45:47;;;;;;;6.82;3.83;;;;;17.60;98070.00;;;;5093391;28;20048;-61
2023/08/04 05:48:14;;;;;;;5.07;4.55;;;;;17.50;98067.00;;;;5092115;28;20042;-61
2023/08/04 05:50:41;;;;;;;6.00;4.60;;;;;17.60;98065.00;;;;5093302;28;20048;-60
2023/08/04 05:53:09;;;;;;;4.45;3.53;;;;;17.60;98064.00;;;;5093307;28;20044;-61
2023/08/04 05:55:36;;;;;;;4.75;3.97;;;;;17.50;98067.00;;;;5093135;28;20119;-61
2023/08/04 05:58:03;;;;;;;4.55;3.60;;;;;17.60;98076.00;;;;5093457;28;20477;-60
2023/08/04 06:00:31;;;;;;;5.72;4.45;;;;;17.60;98073.00;;;;5092927;28;20040;-61
2023/08/04 06:02:57;;;;;;;4.50;3.65;;;;;17.70;98077.00;;;;5093013;28;20040;-61
2023/08/04 06:05:24;;;;;;;5.85;4.00;;;;;17.70;98081.00;;;;5092312;28;20040;-61
2023/08/04 06:07:51;;;;;;;4.90;4.38;;;;;17.60;98080.00;;;;5093045;28;20127;-61
2023/08/04 06:10:19;;;;;;;5.55;4.43;;;;;17.60;98082.00;;;;5092797;28;20425;-61
2023/08/04 06:12:46;;;;;;;5.07;3.67;;;;;17.50;98082.00;;;;5092868;28;20546;-61
2023/08/04 06:15:13;;;;;;;3.85;3.30;;;;;17.50;98087.00;;;;5091661;28;20056;-61
2023/08/04 06:17:40;;;;;;;4.15;3.50;;;;;17.60;98082.00;;;;5091941;28;20051;-61
2023/08/04 06:20:08;;;;;;;4.82;4.10;;;;;17.70;98094.00;;;;5094471;28;20040;-62
2023/08/04 06:22:35;;;;;;;3.55;3.25;;;;;17.70;98087.00;;;;5095875;28;20072;-62
2023/08/04 06:25:03;;;;;;;6.03;4.28;;;;;17.70;98097.00;;;;5096068;28;20113;-61
2023/08/04 06:27:31;;;;;;;4.13;3.75;;;;;17.70;98094.00;;;;5096045;28;20503;-61
2023/08/04 06:29:59;;;;;;;3.92;3.53;;;;;17.60;98101.00;;;;5095617;28;20474;-61
2023/08/04 06:32:26;;;;;;;5.70;4.07;;;;;17.60;98099.00;;;;5095358;28;20036;-62
2023/08/04 06:34:53;;;;;;;3.92;2.75;;;;;17.60;98099.00;;;;5095586;28;20044;-61
2023/08/04 06:37:20;;;;;;;3.60;3.30;;;;;17.60;98101.00;;;;5095192;28;20093;-61
2023/08/04 06:39:46;;;;;;;5.85;3.42;;;;;17.60;98110.00;;;;5095314;28;20104;-62
2023/08/04 06:42:13;;;;;;;3.47;3.17;;;;;17.70;98113.00;;;;5095501;28;20050;-61
2023/08/04 06:44:39;;;;;;;3.50;3.20;;;;;17.70;98115.00;;;;5095722;28;20123;-62
2023/08/04 06:47:06;;;;;;;3.55;3.25;;;;;17.70;98124.00;;;;5095515;28;20048;-61
2023/08/04 06:49:34;;;;;;;3.72;3.28;;;;;17.70;98124.00;;;;5095489;28;20048;-62
2023/08/04 06:52:04;;;;;;;3.78;3.33;;;;;17.70;98125.00;;;;5095271;28;20507;-63
2023/08/04 06:54:31;;;;;;;4.70;2.72;;;;;17.70;98132.00;;;;5094190;28;20040;-62
2023/08/04 06:56:58;;;;;;;4.40;3.20;;;;;17.70;98138.00;;;;5095530;28;20555;-63
2023/08/04 06:59:24;;;;;;;3.50;2.75;;;;;17.80;98134.00;;;;5096183;28;20122;-63
2023/08/04 07:01:51;;;;;;;3.55;2.78;;;;;17.80;98136.00;;;;5095589;28;20123;-62
2023/08/04 07:04:18;;;;;;;3.60;2.50;;;;;17.90;98143.00;;;;5094002;28;20496;-62
2023/08/04 07:06:46;;;;;;;3.30;2.80;;;;;17.80;98142.00;;;;5093259;28;20506;-62
2023/08/04 07:09:12;;;;;;;3.47;2.75;;;;;17.80;98133.00;;;;5094039;28;20052;-62
2023/08/04 07:11:39;;;;;;;5.35;3.03;;;;;17.70;98142.00;;;;5093854;28;20522;-62
2023/08/04 07:14:06;;;;;;;3.83;2.95;;;;;17.70;98147.00;;;;5093896;28;20076;-62
2023/08/04 07:16:33;;;;;;;4.95;3.13;;;;;17.80;98151.00;;;;5095066;28;20477;-62
2023/08/04 07:19:00;;;;;;;4.75;3.10;;;;;17.80;98144.00;;;;5096155;28;20046;-62
2023/08/04 07:21:26;;;;;;;5.25;3.17;;;;;17.90;98152.00;;;;5096106;28;20051;-62
2023/08/04 07:23:53;;;;;;;4.20;3.10;;;;;18.00;98157.00;;;;5099109;28;20048;-63
2023/08/04 07:26:19;;;;;;;5.05;3.83;;;;;18.00;98155.00;;;;5098734;28;20555;-63
2023/08/04 07:28:46;;;;;;;5.40;4.60;;;;;18.00;98166.00;;;;5099630;28;20079;-63
2023/08/04 07:31:12;;;;;;;4.88;3.55;;;;;18.00;98168.00;;;;5099574;28;20428;-62
2023/08/04 07:33:39;;;;;;;6.22;3.85;;;;;17.80;98169.00;;;;5099885;28;20044;-63
2023/08/04 07:36:06;;;;;;;8.00;4.60;;;;;17.70;98170.00;;;;5096359;28;20050;-62
2023/08/04 07:38:32;;;;;;;5.05;4.38;;;;;17.80;98161.00;;;;5096076;28;20050;-62
2023/08/04 07:40:59;;;;;;;5.20;4.32;;;;;17.80;98172.00;;;;5094588;28;20142;-62
2023/08/04 07:43:26;;;;;;;5.75;4.45;;;;;17.90;98174.00;;;;5096312;28;20492;-61
2023/08/04 07:45:54;;;;;;;6.32;4.97;;;;;17.90;98178.00;;;;5096392;28;20040;-59
2023/08/04 07:48:21;;;;;;;7.47;4.95;;;;;17.90;98174.00;;;;5096059;28;20105;-59
2023/08/04 07:50:50;;;;;;;6.70;4.85;;;;;18.00;98174.00;;;;5096235;28;20094;-58
2023/08/04 07:53:17;;;;;;;7.28;4.75;;;;;18.00;98178.00;;;;5096572;28;20044;-59
2023/08/04 07:55:55;;;;;;;8.23;5.10;;;;;18.00;98179.00;;;;5094886;28;20558;-60
2023/08/04 07:58:22;;;;;;;6.38;5.50;;;;;17.80;98191.00;;;;5096204;28;20048;-60
2023/08/04 08:00:48;;;;;;;5.72;5.13;;;;;17.70;98184.00;;;;5095969;28;20403;-60
2023/08/04 08:03:16;;;;;;;6.80;5.13;;;;;17.70;98189.00;;;;5095640;28;20043;-60
2023/08/04 08:05:43;;;;;;;8.55;5.93;;;;;17.80;98179.00;;;;5094458;28;20052;-60
2023/08/04 08:08:09;;;;;;;7.53;5.85;;;;;17.70;98188.00;;;;5094467;28;20051;-61
2023/08/04 08:10:36;;;;;;;9.43;5.03;;;;;17.80;98187.00;;;;5095200;28;20121;-61
2023/08/04 08:13:03;;;;;;;8.27;6.00;;;;;17.80;98188.00;;;;5095279;28;20503;-61
2023/08/04 08:15:30;;;;;;;7.47;6.20;;;;;17.90;98196.00;;;;5095374;28;20054;-61
2023/08/04 08:17:56;;;;;;;7.55;5.70;;;;;17.90;98194.00;;;;5095646;28;20055;-59
2023/08/04 08:20:26;;;;;;;10.23;6.00;;;;;18.00;98202.00;;;;5095010;28;20126;-59
2023/08/04 08:22:53;;;;;;;7.47;5.90;;;;;18.00;98193.00;;;;5095078;28;20043;-59
2023/08/04 08:25:20;;;;;;;8.02;6.22;;;;;18.10;98200.00;;;;5095020;28;20085;-59
2023/08/04 08:27:47;;;;;;;7.15;5.97;;;;;18.20;98199.00;;;;5094000;28;20524;-59
2023/08/04 08:30:14;;;;;;;7.80;6.40;;;;;18.20;98210.00;;;;5094630;28;20044;-59
2023/08/04 08:32:40;;;;;;;7.65;6.53;;;;;18.30;98211.00;;;;5094779;28;20513;-61
2023/08/04 08:35:07;;;;;;;8.10;5.60;;;;;18.30;98220.00;;;;5094932;28;20055;-60
2023/08/04 08:37:34;;;;;;;8.93;6.03;;;;;18.20;98216.00;;;;5094744;28;20055;-60
2023/08/04 08:40:00;;;;;;;8.88;6.30;;;;;18.20;98220.00;;;;5093181;28;20048;-60
2023/08/04 08:42:27;;;;;;;8.13;6.55;;;;;18.30;98220.00;;;;5094297;28;20128;-60
2023/08/04 08:44:54;;;;;;;7.05;5.38;;;;;18.20;98225.00;;;;5094614;28;20493;-60
2023/08/04 08:47:23;;;;;;;6.47;5.70;;;;;18.20;98222.00;;;;5093471;28;20203;-60
2023/08/04 08:49:55;;;;;;;8.68;6.22;;;;;18.30;98223.00;;;;5094160;28;20122;-60
2023/08/04 08:52:24;;;;;;;8.13;5.28;;;;;18.30;98225.00;;;;5094284;28;20044;-60
2023/08/04 08:54:53;;;;;;;6.80;5.07;;;;;18.30;98222.00;;;;5094222;28;20040;-60
2023/08/04 08:57:20;;;;;;;6.13;4.97;;;;;18.30;98234.00;;;;5094316;28;20054;-60
2023/08/04 08:59:48;;;;;;;7.93;5.38;;;;;18.30;98241.00;;;;5094082;28;20511;-60
2023/08/04 09:02:15;;;;;;;6.20;5.13;;;;;18.20;98237.00;;;;5094132;28;20039;-60
2023/08/04 09:04:42;;;;;;;6.75;5.25;;;;;18.20;98240.00;;;;5094187;28;20044;-60
2023/08/04 09:07:09;;;;;;;6.45;4.50;;;;;18.20;98230.00;;;;5093065;28;20054;-60
2023/08/04 09:09:35;;;;;;;6.28;5.55;;;;;18.40;98234.00;;;;5093962;28;20214;-60
2023/08/04 09:12:02;;;;;;;7.93;5.93;;;;;18.40;98237.00;;;;5093964;28;20059;-60
2023/08/04 09:14:49;;;;;;;5.75;5.13;;;;;18.60;98246.00;;;;5094063;28;20051;-59
2023/08/04 09:17:32;;;;;;;9.50;5.60;;;;;18.70;98245.00;;;;5093917;28;20218;-60
2023/08/04 09:20:01;;;;;;;7.13;5.38;;;;;18.90;98244.00;;;;5087621;28;20041;-60
2023/08/04 09:22:28;;;;;;;6.05;4.75;;;;;19.00;98239.00;;;;5083211;28;20043;-60
2023/08/04 09:24:59;;;;;;;6.78;5.25;;;;;19.10;98240.00;;;;5082061;28;20046;-60
2023/08/04 09:27:33;;;;;;;7.28;5.50;;;;;19.20;98249.00;;;;5073325;28;20033;-61
2023/08/04 09:30:03;;;;;;;6.97;5.13;;;;;19.20;98237.00;;;;5072458;28;20086;-60
2023/08/04 09:32:30;;;;;;;6.38;5.10;;;;;19.20;98246.00;;;;5072483;28;20889;-60
2023/08/04 09:35:06;;;;;;;5.55;4.95;;;;;19.40;98243.00;;;;5072753;28;20045;-60
2023/08/04 09:37:34;;;;;;;6.57;4.75;;;;;19.60;98244.00;;;;5072890;28;20036;-60
2023/08/04 09:40:03;;;;;;;6.00;4.95;;;;;19.60;98244.00;;;;5071461;28;20059;-61
2023/08/04 09:42:35;;;;;;;7.40;5.60;;;;;19.70;98247.00;;;;5071741;28;20036;-60
2023/08/04 09:45:02;;;;;;;7.40;5.57;;;;;19.60;98243.00;;;;5073057;28;20029;-60
2023/08/04 09:47:29;;;;;;;6.55;4.97;;;;;19.60;98245.00;;;;5072705;28;20060;-60
2023/08/04 09:49:57;;;;;;;7.28;4.70;;;;;19.50;98254.00;;;;5072839;28;20048;-61
2023/08/04 09:52:27;;;;;;;10.43;6.05;;;;;19.50;98247.00;;;;5082175;28;20119;-60
2023/08/04 09:54:56;;;;;;;10.73;5.43;;;;;19.50;98249.00;;;;5085050;28;20182;-60
2023/08/04 09:57:23;;;;;;;8.52;5.10;;;;;19.50;98251.00;;;;5091914;28;20052;-60
2023/08/04 09:59:51;;;;;;;7.88;6.07;;;;;19.70;98256.00;;;;5093051;28;20048;-60
2023/08/04 10:02:19;;;;;;;8.70;5.68;;;;;19.80;98254.00;;;;5093021;28;20469;-60
2023/08/04 10:04:50;;;;;;;8.02;5.25;;;;;19.80;98258.00;;;;5092962;28;20058;-60
2023/08/04 10:07:18;;;;;;;7.55;5.70;;;;;19.90;98254.00;;;;5093037;28;20048;-60
2023/08/04 10:09:48;;;;;;;8.82;5.13;;;;;19.90;98257.00;;;;5092560;28;20036;-60
2023/08/04 10:12:17;;;;;;;7.18;4.60;;;;;19.80;98260.00;;;;5092424;28;20044;-60
2023/08/04 10:14:44;;;;;;;7.97;5.32;;;;;19.80;98260.00;;;;5092782;28;20119;-60
2023/08/04 10:17:11;;;;;;;9.48;5.30;;;;;19.70;98263.00;;;;5092721;28;20046;-60
2023/08/04 10:19:38;;;;;;;8.60;5.63;;;;;19.60;98263.00;;;;5092118;28;20093;-60
2023/08/04 10:22:07;;;;;;;8.38;5.65;;;;;19.60;98265.00;;;;5092352;28;20044;-60
2023/08/04 10:24:36;;;;;;;8.07;5.53;;;;;19.60;98265.00;;;;5089670;28;20424;-60
2023/08/04 10:27:45;;;;;;;9.95;5.13;;;;;19.60;98275.00;;;;5092787;28;20091;-61
2023/08/04 10:30:11;;;;;;;7.28;5.20;;;;;19.50;98280.00;;;;5082132;28;20066;-60
2023/08/04 10:32:39;;;;;;;8.52;5.70;;;;;19.40;98280.00;;;;5092490;28;20127;-60
2023/08/04 10:35:16;;;;;;;7.85;5.40;;;;;19.20;98281.00;;;;5091286;28;20044;-60
2023/08/04 10:37:45;;;;;;;9.85;5.97;;;;;19.10;98272.00;;;;5092942;28;20052;-60
2023/08/04 10:40:12;;;;;;;10.85;6.22;;;;;19.10;98268.00;;;;5092332;28;20157;-60
2023/08/04 10:42:57;;;;;;;12.13;6.90;;;;;19.20;98278.00;;;;5092337;28;20094;-60
2023/08/04 10:45:52;;;;;;;10.60;5.63;;;;;19.40;98280.00;;;;5092710;28;20052;-60
2023/08/04 10:48:23;;;;;;;8.88;5.07;;;;;19.60;98282.00;;;;5092373;28;20059;-60
2023/08/04 10:50:50;;;;;;;12.43;5.90;;;;;19.70;98287.00;;;;5091951;28;20044;-60
2023/08/04 10:53:17;;;;;;;7.13;5.38;;;;;19.90;98292.00;;;;5091961;28;20040;-61
2023/08/04 10:55:52;;;;;;;10.30;6.50;;;;;20.20;98287.00;;;;5090755;28;20048;-61
2023/08/04 10:58:18;;;;;;;8.30;6.05;;;;;20.10;98283.00;;;;5072052;28;20044;-61
2023/08/04 11:00:47;;;;;;;11.50;5.07;;;;;20.10;98284.00;;;;5074445;28;20408;-60
2023/08/04 11:03:29;;;;;;;7.03;5.03;;;;;20.30;98284.00;;;;5088926;28;20116;-61
2023/08/04 11:05:56;;;;;;;7.47;4.28;;;;;20.50;98279.00;;;;5089822;28;20110;-61
2023/08/04 11:08:23;;;;;;;8.15;5.18;;;;;20.70;98285.00;;;;5067247;28;20106;-61
2023/08/04 11:10:52;;;;;;;7.72;5.13;;;;;20.90;98288.00;;;;5070575;28;20114;-61
2023/08/04 11:13:20;;;;;;;6.25;4.90;;;;;21.00;98289.00;;;;5086793;28;20055;-61
2023/08/04 11:15:48;;;;;;;7.85;5.20;;;;;21.10;98293.00;;;;5091942;28;20122;-61
2023/08/04 11:18:26;;;;;;;6.30;4.38;;;;;21.10;98283.00;;;;5092112;28;20043;-61
2023/08/04 11:20:53;;;;;;;10.65;4.85;;;;;21.10;98287.00;;;;5092250;28;20044;-61
2023/08/04 11:23:27;;;;;;;8.52;3.92;;;;;21.10;98291.00;;;;5092595;28;20064;-61
2023/08/04 11:25:58;;;;;;;6.75;4.22;;;;;21.20;98296.00;;;;5091898;28;20043;-61
2023/08/04 11:28:26;;;;;;;8.55;4.57;;;;;21.10;98300.00;;;;5092281;28;20381;-61
2023/08/04 11:31:01;;;;;;;5.00;4.25;;;;;21.10;98310.00;;;;5091774;28;20097;-61
2023/08/04 11:33:28;;;;;;;7.85;4.93;;;;;21.00;98298.00;;;;5091183;28;20135;-61
2023/08/04 11:35:55;;;;;;;9.10;4.35;;;;;20.90;98301.00;;;;5092314;28;20040;-61
2023/08/04 11:38:21;;;;;;;8.02;4.43;;;;;20.90;98300.00;;;;5092162;28;20072;-61
2023/08/04 11:40:58;;;;;;;9.13;4.85;;;;;21.30;98298.00;;;;5092312;28;20040;-61
2023/08/04 11:43:25;;;;;;;5.78;3.88;;;;;21.50;98303.00;;;;5091838;28;20119;-62
2023/08/04 11:45:55;;;;;;;7.15;4.05;;;;;22.00;98304.00;;;;5091863;28;20056;-62
2023/08/04 11:48:25;;;;;;;6.43;3.55;;;;;22.20;98296.00;;;;5092056;28;20127;-62
2023/08/04 11:50:53;;;;;;;6.18;4.22;;;;;22.20;98296.00;;;;5091710;28;20094;-62
2023/08/04 11:53:20;;;;;;;5.53;3.80;;;;;22.20;98302.00;;;;5091825;28;20498;-61
2023/08/04 11:55:56;;;;;;;6.40;3.65;;;;;22.30;98298.00;;;;5091653;28;20130;-61
2023/08/04 11:58:54;;;;;;;6.72;3.10;;;;;22.20;98300.00;;;;5092169;28;20048;-61
2023/08/04 12:01:28;;;;;;;4.95;3.30;;;;;22.00;98295.00;;;;5091788;28;20127;-61
2023/08/04 12:03:55;;;;;;;6.47;3.22;;;;;21.90;98303.00;;;;5094773;28;20048;-61
2023/08/04 12:06:24;;;;;;;6.35;3.40;;;;;21.80;98307.00;;;;5095229;28;20054;-61
2023/08/04 12:08:52;;;;;;;6.30;3.63;;;;;21.70;98301.00;;;;5095542;28;20123;-61
2023/08/04 12:11:20;;;;;;;5.15;3.55;;;;;21.60;98297.00;;;;5094819;28;20050;-61
2023/08/04 12:13:47;;;;;;;5.07;3.33;;;;;21.50;98297.00;;;;5095130;28;20044;-61
2023/08/04 12:16:14;;;;;;;5.70;3.63;;;;;21.40;98296.00;;;;5095152;28;20492;-62
2023/08/04 12:18:41;;;;;;;5.20;3.58;;;;;21.30;98300.00;;;;5095268;28;20621;-61
2023/08/04 12:21:11;;;;;;;8.73;3.97;;;;;21.50;98304.00;;;;5093640;28;20113;-62